Time;durP1;ratioP1;P1;durP2;ratioP2;P2;SDS_P1;SDS_P2;PMS_P1;PMS_P2;Temp;Humidity;BMP_temperature;BMP_pressure;BME280_temperature;BME280_humidity;BME280_pressure;Samples;Min_cycle;Max_cycle;Signal;HPM_P1;HPM_P2
2022/06/26 00:01:35;;;;;;;2.90;1.08;;;26.20;52.60;;;;;;4917861;29;20106;-50
2022/06/26 00:04:01;;;;;;;2.20;1.05;;;26.20;52.60;;;;;;4916851;29;20036;-50
2022/06/26 00:06:26;;;;;;;2.17;1.02;;;26.10;52.50;;;;;;4916130;29;20075;-50
2022/06/26 00:08:52;;;;;;;1.48;0.80;;;26.20;52.60;;;;;;4916381;29;20039;-48
2022/06/26 00:11:18;;;;;;;2.08;0.90;;;26.20;52.60;;;;;;4916729;29;20028;-48
2022/06/26 00:13:44;;;;;;;1.70;0.93;;;26.10;52.60;;;;;;4917245;29;20088;-50
2022/06/26 00:16:09;;;;;;;1.42;0.82;;;26.20;52.60;;;;;;4919197;29;20032;-48
2022/06/26 00:18:35;;;;;;;1.45;0.90;;;26.20;52.50;;;;;;4916648;29;20593;-50
2022/06/26 00:21:01;;;;;;;1.77;0.90;;;26.10;52.60;;;;;;4916934;29;20047;-49
2022/06/26 00:23:27;;;;;;;1.88;0.80;;;26.10;52.50;;;;;;4916452;29;20074;-49
2022/06/26 00:25:53;;;;;;;1.63;0.77;;;26.10;52.60;;;;;;4916891;29;20273;-48
2022/06/26 00:28:18;;;;;;;1.90;0.93;;;26.10;52.60;;;;;;4917602;29;20088;-48
2022/06/26 00:30:45;;;;;;;2.53;0.93;;;26.10;52.60;;;;;;4916882;29;21448;-49
2022/06/26 00:33:11;;;;;;;2.05;1.00;;;26.10;52.50;;;;;;4917553;29;20044;-48
2022/06/26 00:35:36;;;;;;;2.70;1.30;;;26.10;52.50;;;;;;4916675;29;20125;-49
2022/06/26 00:38:02;;;;;;;2.33;0.70;;;26.10;52.50;;;;;;4915933;29;20484;-49
2022/06/26 00:40:28;;;;;;;2.22;1.00;;;26.10;52.40;;;;;;4916911;29;20028;-50
2022/06/26 00:42:54;;;;;;;2.53;0.88;;;26.10;52.30;;;;;;4916305;29;20132;-49
2022/06/26 00:45:19;;;;;;;2.67;1.13;;;26.10;52.30;;;;;;4916740;29;20028;-49
2022/06/26 00:47:46;;;;;;;2.47;1.10;;;26.10;52.20;;;;;;4917321;29;20039;-49
2022/06/26 00:50:11;;;;;;;2.17;1.08;;;26.10;52.20;;;;;;4916385;29;20032;-48
2022/06/26 00:52:39;;;;;;;1.60;0.75;;;26.10;52.20;;;;;;4916610;29;20035;-51
2022/06/26 00:55:06;;;;;;;1.63;0.77;;;26.10;52.20;;;;;;4917003;29;20020;-49
2022/06/26 00:57:35;;;;;;;1.83;0.90;;;26.10;52.20;;;;;;4916863;29;20032;-48
2022/06/26 01:00:01;;;;;;;2.53;0.95;;;26.10;52.10;;;;;;4916444;29;20147;-48
2022/06/26 01:02:26;;;;;;;1.83;0.95;;;26.10;52.10;;;;;;4916290;29;20281;-49
2022/06/26 01:04:52;;;;;;;1.65;0.80;;;26.10;52.10;;;;;;4916222;29;20035;-51
2022/06/26 01:07:18;;;;;;;2.55;0.80;;;26.10;52.10;;;;;;4916373;29;20031;-50
2022/06/26 01:09:44;;;;;;;1.55;0.77;;;26.10;52.10;;;;;;4916541;29;20036;-50
2022/06/26 01:12:10;;;;;;;2.10;0.80;;;26.10;52.10;;;;;;4917109;29;20123;-49
2022/06/26 01:14:37;;;;;;;2.22;0.90;;;26.10;52.00;;;;;;4916774;29;20116;-47
2022/06/26 01:17:03;;;;;;;1.58;0.77;;;26.10;52.00;;;;;;4915302;29;20020;-49
2022/06/26 01:19:30;;;;;;;1.35;0.63;;;26.10;52.00;;;;;;4917615;29;20031;-49
2022/06/26 01:21:56;;;;;;;1.50;0.70;;;26.10;52.00;;;;;;4920583;29;20102;-49
2022/06/26 01:24:22;;;;;;;1.42;0.80;;;26.10;52.00;;;;;;4919669;29;20024;-50
2022/06/26 01:26:48;;;;;;;1.98;1.00;;;26.10;52.00;;;;;;4920167;29;20028;-49
2022/06/26 01:29:14;;;;;;;2.50;0.90;;;26.10;52.00;;;;;;4920122;29;20075;-49
2022/06/26 01:31:40;;;;;;;1.10;0.60;;;26.10;52.00;;;;;;4921036;29;20986;-49
2022/06/26 01:34:07;;;;;;;2.40;0.90;;;26.10;52.00;;;;;;4919978;29;20551;-49
2022/06/26 01:36:33;;;;;;;2.42;0.93;;;26.10;52.00;;;;;;4920352;29;20034;-48
2022/06/26 01:38:59;;;;;;;1.30;0.70;;;26.10;52.00;;;;;;4919651;29;20725;-49
2022/06/26 01:41:25;;;;;;;1.80;0.90;;;26.10;52.00;;;;;;4920409;29;20025;-49
2022/06/26 01:43:51;;;;;;;1.98;0.90;;;26.10;52.00;;;;;;4919540;29;20028;-48
2022/06/26 01:46:17;;;;;;;1.10;0.60;;;26.10;52.00;;;;;;4920221;29;20035;-49
2022/06/26 01:48:43;;;;;;;1.90;0.80;;;26.10;52.00;;;;;;4919873;29;20566;-49
2022/06/26 01:51:08;;;;;;;1.50;0.80;;;26.10;52.00;;;;;;4919301;29;20016;-50
2022/06/26 01:53:35;;;;;;;2.63;0.88;;;26.10;52.00;;;;;;4920020;29;20027;-50
2022/06/26 01:56:01;;;;;;;2.70;0.90;;;26.10;52.00;;;;;;4920447;29;20508;-49
2022/06/26 01:58:27;;;;;;;1.33;0.63;;;26.10;52.00;;;;;;4919405;29;20026;-49
2022/06/26 02:00:55;;;;;;;1.20;0.77;;;26.10;52.00;;;;;;4919126;29;20599;-49
2022/06/26 02:03:23;;;;;;;1.15;0.70;;;26.10;52.00;;;;;;4921187;29;20103;-50
2022/06/26 02:05:50;;;;;;;1.60;0.80;;;26.10;51.90;;;;;;4919706;29;20028;-51
2022/06/26 02:08:16;;;;;;;1.65;1.02;;;26.10;52.00;;;;;;4919325;29;20032;-49
2022/06/26 02:13:36;;;;;;;1.58;0.60;;;26.10;51.90;;;;;;4919644;29;20107;-49
2022/06/26 02:16:05;;;;;;;1.05;0.70;;;26.10;51.80;;;;;;4918550;29;20389;-49
2022/06/26 02:18:31;;;;;;;1.05;0.60;;;26.10;51.80;;;;;;4918858;29;20036;-50
2022/06/26 02:20:57;;;;;;;1.77;0.50;;;26.10;51.70;;;;;;4918901;29;20046;-49
2022/06/26 02:23:23;;;;;;;1.63;0.65;;;26.10;51.70;;;;;;4918870;29;20547;-48
2022/06/26 02:25:49;;;;;;;1.17;0.70;;;26.10;51.70;;;;;;4920289;29;20110;-49
2022/06/26 02:28:16;;;;;;;1.92;1.10;;;26.00;51.70;;;;;;4917394;29;20111;-48
2022/06/26 02:30:42;;;;;;;1.52;0.85;;;26.00;51.70;;;;;;4917877;29;20032;-49
2022/06/26 02:33:08;;;;;;;1.15;0.65;;;26.00;51.70;;;;;;4920071;29;20026;-50
2022/06/26 02:35:34;;;;;;;1.95;0.70;;;26.10;51.70;;;;;;4919012;29;20036;-49
2022/06/26 02:38:00;;;;;;;1.10;0.60;;;26.10;51.70;;;;;;4917850;29;20035;-50
2022/06/26 02:40:27;;;;;;;1.40;0.70;;;26.10;51.70;;;;;;4919428;29;20480;-50
2022/06/26 02:42:53;;;;;;;1.65;0.75;;;26.00;51.70;;;;;;4918653;29;20032;-49
2022/06/26 02:45:19;;;;;;;1.13;0.60;;;26.10;51.70;;;;;;4919018;29;20164;-48
2022/06/26 02:47:46;;;;;;;1.85;1.00;;;26.00;51.70;;;;;;4919748;29;20119;-48
2022/06/26 02:50:12;;;;;;;1.73;0.77;;;26.10;51.60;;;;;;4919559;29;20068;-50
2022/06/26 02:52:38;;;;;;;1.27;0.70;;;26.10;51.70;;;;;;4919534;29;20447;-49
2022/06/26 02:55:05;;;;;;;1.50;0.68;;;26.00;51.60;;;;;;4917802;29;20032;-50
2022/06/26 02:57:31;;;;;;;1.50;0.70;;;26.00;51.60;;;;;;4919476;29;20027;-50
2022/06/26 02:59:56;;;;;;;1.30;0.77;;;26.10;51.70;;;;;;4918190;29;20027;-51
2022/06/26 03:02:24;;;;;;;1.58;0.77;;;26.10;51.60;;;;;;4919911;29;20043;-49
2022/06/26 03:04:51;;;;;;;1.30;0.80;;;26.00;51.70;;;;;;4918209;29;20023;-49
2022/06/26 03:07:17;;;;;;;1.38;0.60;;;26.10;51.60;;;;;;4918565;29;20036;-50
2022/06/26 03:09:43;;;;;;;1.40;0.60;;;26.10;51.60;;;;;;4918356;29;20028;-50
2022/06/26 03:12:08;;;;;;;1.75;0.70;;;26.10;51.70;;;;;;4919123;29;20035;-48
2022/06/26 03:14:34;;;;;;;1.27;0.60;;;26.00;51.60;;;;;;4916763;29;20054;-49
2022/06/26 03:17:00;;;;;;;1.27;0.60;;;26.10;51.50;;;;;;4916577;29;20034;-49
2022/06/26 03:19:27;;;;;;;1.85;0.70;;;26.10;51.50;;;;;;4918123;29;20110;-48
2022/06/26 03:21:53;;;;;;;1.02;0.60;;;26.10;51.50;;;;;;4918380;29;20040;-49
2022/06/26 03:24:19;;;;;;;1.83;0.70;;;26.10;51.50;;;;;;4918299;29;20031;-49
2022/06/26 03:26:44;;;;;;;1.58;0.60;;;26.10;51.40;;;;;;4918820;29;20031;-49
2022/06/26 03:29:11;;;;;;;1.98;0.80;;;26.10;51.40;;;;;;4917945;29;20127;-49
2022/06/26 03:31:37;;;;;;;1.90;0.60;;;26.00;51.40;;;;;;4918101;29;20035;-49
2022/06/26 03:34:03;;;;;;;1.70;0.73;;;26.00;51.50;;;;;;4932326;29;20015;-49
2022/06/26 03:36:29;;;;;;;1.50;0.60;;;26.00;51.40;;;;;;4918410;29;20060;-48
2022/06/26 03:38:55;;;;;;;0.63;0.50;;;26.00;51.50;;;;;;4917616;29;20470;-49
2022/06/26 03:41:21;;;;;;;1.30;0.63;;;26.00;51.40;;;;;;4917415;29;20028;-50
2022/06/26 03:43:48;;;;;;;1.73;0.73;;;26.00;51.50;;;;;;4918128;29;20582;-49
2022/06/26 03:46:14;;;;;;;1.77;0.90;;;26.00;51.40;;;;;;4917315;29;20272;-50
2022/06/26 03:48:40;;;;;;;1.83;0.90;;;26.00;51.50;;;;;;4918250;29;20034;-49
2022/06/26 03:51:06;;;;;;;1.00;0.55;;;26.00;51.50;;;;;;4917481;29;20027;-50
2022/06/26 03:53:33;;;;;;;1.52;0.80;;;26.00;51.50;;;;;;4917890;29;20031;-49
2022/06/26 03:55:59;;;;;;;1.88;0.80;;;26.00;51.50;;;;;;4917686;29;20024;-49
2022/06/26 03:58:24;;;;;;;1.10;0.68;;;26.00;51.50;;;;;;4916636;29;20032;-49
2022/06/26 04:00:51;;;;;;;1.55;0.60;;;26.00;51.50;;;;;;4916932;29;20036;-49
2022/06/26 04:03:17;;;;;;;1.20;0.63;;;26.00;51.40;;;;;;4918763;29;20043;-49
2022/06/26 04:05:44;;;;;;;2.83;0.80;;;26.00;51.40;;;;;;4917394;29;20046;-49
2022/06/26 04:08:10;;;;;;;2.03;0.75;;;26.00;51.40;;;;;;4916580;29;20053;-49
2022/06/26 04:10:36;;;;;;;2.92;0.90;;;26.00;51.30;;;;;;4917154;29;20030;-49
2022/06/26 04:13:05;;;;;;;2.85;0.60;;;26.00;51.30;;;;;;4916005;29;20148;-49
2022/06/26 04:15:33;;;;;;;1.33;0.73;;;26.00;51.30;;;;;;4916122;29;20552;-49
2022/06/26 04:17:59;;;;;;;1.27;0.75;;;26.00;51.30;;;;;;4917204;29;20036;-49
2022/06/26 04:20:25;;;;;;;1.88;0.77;;;26.00;51.30;;;;;;4916920;29;20507;-50
2022/06/26 04:23:08;;;;;;;0.88;0.60;;;26.00;51.30;;;;;;4917188;29;20027;-47
2022/06/26 04:25:35;;;;;;;1.67;0.70;;;26.00;51.30;;;;;;4918564;29;20028;-49
2022/06/26 04:28:02;;;;;;;1.60;0.80;;;26.00;51.30;;;;;;4916915;29;20082;-48
2022/06/26 04:30:28;;;;;;;1.52;0.63;;;26.00;51.30;;;;;;4917719;29;20036;-48
2022/06/26 04:32:55;;;;;;;1.45;0.70;;;26.00;51.30;;;;;;4918876;29;20042;-49
2022/06/26 04:35:20;;;;;;;1.33;0.77;;;26.00;51.30;;;;;;4919754;29;20059;-49
2022/06/26 04:37:46;;;;;;;2.50;1.10;;;26.00;51.30;;;;;;4919813;29;20079;-49
2022/06/26 04:40:13;;;;;;;1.70;0.70;;;26.00;51.30;;;;;;4916824;29;20024;-48
2022/06/26 04:42:39;;;;;;;1.40;0.73;;;26.00;51.40;;;;;;4916610;29;20043;-48
2022/06/26 04:45:06;;;;;;;1.55;0.65;;;26.00;51.40;;;;;;4917060;29;20039;-49
2022/06/26 04:47:31;;;;;;;1.58;0.60;;;26.00;51.30;;;;;;4918291;29;20032;-48
2022/06/26 04:49:57;;;;;;;1.65;0.80;;;26.00;51.40;;;;;;4916462;29;20040;-49
2022/06/26 04:52:23;;;;;;;1.65;0.77;;;26.00;51.30;;;;;;4915445;29;20034;-49
2022/06/26 04:54:50;;;;;;;1.65;0.60;;;26.00;51.40;;;;;;4919432;29;20027;-49
2022/06/26 04:57:16;;;;;;;2.08;1.00;;;26.00;51.40;;;;;;4920972;29;20113;-48
2022/06/26 04:59:43;;;;;;;1.40;0.70;;;26.00;51.40;;;;;;4920126;29;20031;-51
2022/06/26 05:02:10;;;;;;;1.73;0.70;;;26.00;51.40;;;;;;4921615;29;20036;-48
2022/06/26 05:04:36;;;;;;;1.45;0.77;;;26.00;51.40;;;;;;4920398;29;20027;-48
2022/06/26 05:07:02;;;;;;;1.40;0.75;;;26.00;51.40;;;;;;4920480;29;20419;-50
2022/06/26 05:09:28;;;;;;;2.05;0.80;;;26.00;51.30;;;;;;4920307;29;20480;-49
2022/06/26 05:11:54;;;;;;;2.30;0.98;;;26.00;51.40;;;;;;4920578;29;20039;-49
2022/06/26 05:14:21;;;;;;;2.35;0.90;;;26.00;51.40;;;;;;4920358;29;20040;-49
2022/06/26 05:16:47;;;;;;;1.45;0.70;;;26.10;51.40;;;;;;4921813;29;20671;-50
2022/06/26 05:19:13;;;;;;;2.33;0.75;;;26.00;51.40;;;;;;4920024;29;20051;-48
2022/06/26 05:21:39;;;;;;;2.08;0.90;;;26.00;52.20;;;;;;4920205;29;20042;-49
2022/06/26 05:24:05;;;;;;;1.00;0.68;;;26.10;51.50;;;;;;4920566;29;20028;-48
2022/06/26 05:26:31;;;;;;;1.98;0.80;;;26.00;51.50;;;;;;4921461;29;20039;-47
2022/06/26 05:28:57;;;;;;;2.75;1.00;;;26.10;51.50;;;;;;4919238;29;20241;-49
2022/06/26 05:31:23;;;;;;;1.88;0.80;;;26.10;51.50;;;;;;4918410;29;20102;-48
2022/06/26 05:33:48;;;;;;;1.70;1.05;;;26.10;51.60;;;;;;4920785;29;20034;-48
2022/06/26 05:36:14;;;;;;;2.20;0.82;;;26.10;51.70;;;;;;4919362;29;20036;-49
2022/06/26 05:38:41;;;;;;;1.98;1.00;;;26.10;51.60;;;;;;4919626;29;20270;-49
2022/06/26 05:41:07;;;;;;;2.13;0.90;;;26.10;51.80;;;;;;4920637;29;20055;-50
2022/06/26 05:43:33;;;;;;;2.20;0.82;;;26.10;51.90;;;;;;4920122;29;20538;-48
2022/06/26 05:45:59;;;;;;;3.17;1.25;;;26.10;52.00;;;;;;4918862;29;20583;-49
2022/06/26 05:48:26;;;;;;;3.63;1.20;;;26.10;52.10;;;;;;4922111;29;20123;-48
2022/06/26 05:50:52;;;;;;;1.60;1.00;;;26.10;52.10;;;;;;4919768;29;20160;-49
2022/06/26 05:53:18;;;;;;;1.13;0.80;;;26.10;52.00;;;;;;4919574;29;20495;-48
2022/06/26 05:55:44;;;;;;;2.13;1.10;;;26.10;52.00;;;;;;4920184;29;20020;-54
2022/06/26 05:58:10;;;;;;;2.85;1.20;;;26.10;52.00;;;;;;4919432;29;20020;-48
2022/06/26 06:00:36;;;;;;;2.70;1.27;;;26.10;52.00;;;;;;4921818;29;20058;-49
2022/06/26 06:03:03;;;;;;;2.78;1.10;;;26.10;52.00;;;;;;4929489;29;20043;-49
2022/06/26 06:05:29;;;;;;;2.45;0.85;;;26.10;52.00;;;;;;4928096;29;20167;-49
2022/06/26 06:07:55;;;;;;;2.42;1.10;;;26.10;52.00;;;;;;4928648;29;20099;-47
2022/06/26 06:10:21;;;;;;;3.60;1.13;;;26.10;52.00;;;;;;4929091;29;20652;-49
2022/06/26 06:12:47;;;;;;;3.00;1.10;;;26.10;52.00;;;;;;4928433;29;20082;-52
2022/06/26 06:15:13;;;;;;;1.60;0.80;;;26.10;52.00;;;;;;4929048;29;20118;-50
2022/06/26 06:17:43;;;;;;;1.63;1.05;;;26.10;52.10;;;;;;4928218;29;20114;-51
2022/06/26 06:20:12;;;;;;;1.30;0.77;;;26.10;52.00;;;;;;4929383;29;20031;-48
2022/06/26 06:22:39;;;;;;;2.55;1.20;;;26.20;52.00;;;;;;4929141;29;20638;-49
2022/06/26 06:25:06;;;;;;;2.20;1.10;;;26.20;52.00;;;;;;4928919;29;20519;-49
2022/06/26 06:27:32;;;;;;;2.30;0.90;;;26.20;52.00;;;;;;4928508;29;20036;-49
2022/06/26 06:29:57;;;;;;;4.78;1.33;;;26.20;51.90;;;;;;4928662;29;20321;-51
2022/06/26 06:32:23;;;;;;;2.60;1.10;;;26.20;52.10;;;;;;4928659;29;20598;-51
2022/06/26 06:34:49;;;;;;;2.67;1.30;;;26.20;52.00;;;;;;4928867;29;20027;-49
2022/06/26 06:37:14;;;;;;;1.80;0.93;;;26.20;52.00;;;;;;4928248;29;20035;-51
2022/06/26 06:39:40;;;;;;;2.28;1.15;;;26.20;51.90;;;;;;4928746;29;20518;-50
2022/06/26 06:42:06;;;;;;;1.95;1.05;;;26.20;52.00;;;;;;4928446;29;20774;-47
2022/06/26 06:44:31;;;;;;;3.00;0.90;;;26.20;51.90;;;;;;4928409;29;20039;-47
2022/06/26 06:46:57;;;;;;;2.97;1.02;;;26.20;51.90;;;;;;4928458;29;20028;-47
2022/06/26 06:49:23;;;;;;;2.47;1.10;;;26.20;51.90;;;;;;4927950;29;20054;-48
2022/06/26 06:51:48;;;;;;;2.47;1.13;;;26.20;52.00;;;;;;4928379;29;20340;-48
2022/06/26 06:54:14;;;;;;;1.83;0.93;;;26.30;52.00;;;;;;4927818;29;20443;-47
2022/06/26 06:56:39;;;;;;;2.95;1.00;;;26.20;52.10;;;;;;4927637;29;20085;-48
2022/06/26 06:59:05;;;;;;;3.50;1.40;;;26.20;52.10;;;;;;4917759;29;20246;-47
2022/06/26 07:01:31;;;;;;;3.00;1.30;;;26.30;52.00;;;;;;4918211;29;20038;-47
2022/06/26 07:03:56;;;;;;;2.85;1.00;;;26.30;52.00;;;;;;4921329;29;20681;-45
2022/06/26 07:06:22;;;;;;;1.88;1.10;;;26.30;52.30;;;;;;4917821;29;20032;-45
2022/06/26 07:08:48;;;;;;;2.05;1.10;;;26.30;52.40;;;;;;4918640;29;20031;-45
2022/06/26 07:11:14;;;;;;;1.90;1.20;;;26.30;52.40;;;;;;4927695;29;20032;-45
2022/06/26 07:13:40;;;;;;;2.85;1.50;;;26.30;52.80;;;;;;4927778;29;20489;-45
2022/06/26 07:16:05;;;;;;;2.63;1.50;;;26.30;52.40;;;;;;4927123;29;20055;-46
2022/06/26 07:18:31;;;;;;;3.25;1.40;;;26.30;52.40;;;;;;4926821;29;20042;-45
2022/06/26 07:20:57;;;;;;;2.70;1.55;;;26.40;52.30;;;;;;4927017;29;20099;-45
2022/06/26 07:23:23;;;;;;;3.55;1.30;;;26.40;52.30;;;;;;4927378;29;20024;-46
2022/06/26 07:25:50;;;;;;;2.50;1.38;;;26.40;52.20;;;;;;4919862;29;20032;-46
2022/06/26 07:28:15;;;;;;;3.53;1.90;;;26.50;52.20;;;;;;4919765;29;20752;-46
2022/06/26 07:30:41;;;;;;;4.68;1.80;;;26.50;52.00;;;;;;4917112;29;20107;-44
2022/06/26 07:35:52;;;;;;;4.65;1.52;;;26.60;51.80;;;;;;4918808;29;20051;-45
2022/06/26 07:38:18;;;;;;;3.83;1.90;;;26.70;51.70;;;;;;4915786;29;20040;-45
2022/06/26 07:40:43;;;;;;;3.75;2.20;;;26.70;51.90;;;;;;4918706;29;20040;-44
2022/06/26 07:43:09;;;;;;;2.88;1.77;;;26.70;51.80;;;;;;4917952;29;20024;-45
2022/06/26 07:45:35;;;;;;;3.00;1.80;;;26.80;52.30;;;;;;4921595;29;20027;-45
2022/06/26 07:48:01;;;;;;;2.78;1.70;;;26.80;52.10;;;;;;4926107;29;20411;-46
2022/06/26 07:50:27;;;;;;;2.58;1.60;;;26.70;52.20;;;;;;4926902;29;20023;-46
2022/06/26 07:52:53;;;;;;;5.35;2.28;;;26.80;52.30;;;;;;4921580;29;20043;-46
2022/06/26 07:55:19;;;;;;;4.10;2.60;;;26.80;53.00;;;;;;4927704;29;20610;-46
2022/06/26 07:57:44;;;;;;;3.40;2.15;;;26.80;52.90;;;;;;4922204;29;20027;-46
2022/06/26 08:00:10;;;;;;;3.58;2.58;;;26.80;52.60;;;;;;4919318;29;20122;-47
2022/06/26 08:02:36;;;;;;;4.15;2.50;;;26.70;52.90;;;;;;4926138;29;20035;-46
2022/06/26 08:05:02;;;;;;;3.17;2.20;;;26.70;53.30;;;;;;4926247;29;20028;-46
2022/06/26 08:07:28;;;;;;;5.22;2.55;;;26.70;53.20;;;;;;4925607;29;20040;-46
2022/06/26 08:09:54;;;;;;;3.40;2.47;;;26.70;54.10;;;;;;4925262;29;20303;-46
2022/06/26 08:12:20;;;;;;;3.60;2.30;;;26.70;53.20;;;;;;4924659;29;20715;-47
2022/06/26 08:14:45;;;;;;;3.13;2.13;;;26.70;52.50;;;;;;4925379;29;20030;-46
2022/06/26 08:17:11;;;;;;;3.22;2.08;;;26.60;52.60;;;;;;4925815;29;20036;-46
2022/06/26 08:19:37;;;;;;;4.32;2.67;;;26.60;52.80;;;;;;4925887;29;20063;-46
2022/06/26 08:22:03;;;;;;;3.15;2.03;;;26.70;53.50;;;;;;4925957;29;20083;-46
2022/06/26 08:24:30;;;;;;;3.17;2.10;;;26.70;53.10;;;;;;4925323;29;20040;-46
2022/06/26 08:26:56;;;;;;;4.43;2.58;;;26.70;53.30;;;;;;4923963;29;20144;-46
2022/06/26 08:29:22;;;;;;;3.58;2.58;;;26.70;53.20;;;;;;4924411;29;20494;-46
2022/06/26 08:31:47;;;;;;;2.78;2.08;;;26.70;52.00;;;;;;4925874;29;20748;-47
2022/06/26 08:34:13;;;;;;;3.95;2.85;;;26.80;54.00;;;;;;4925305;29;20027;-46
2022/06/26 08:36:39;;;;;;;3.15;2.25;;;26.80;53.00;;;;;;4925363;29;20031;-48
2022/06/26 08:39:06;;;;;;;3.17;2.15;;;26.80;51.60;;;;;;4925551;29;20372;-48
2022/06/26 08:41:39;;;;;;;3.53;2.50;;;26.80;51.80;;;;;;4925668;29;20028;-48
2022/06/26 08:44:06;;;;;;;3.83;2.53;;;26.70;51.00;;;;;;4925281;29;20055;-48
2022/06/26 08:46:38;;;;;;;3.05;2.00;;;26.70;50.60;;;;;;4926313;29;20028;-48
2022/06/26 08:49:15;;;;;;;3.03;2.03;;;26.70;51.00;;;;;;4924118;29;20646;-48
2022/06/26 08:51:43;;;;;;;3.03;2.22;;;26.60;51.00;;;;;;4925577;29;20028;-49
2022/06/26 08:54:12;;;;;;;3.40;2.28;;;26.60;51.30;;;;;;4925820;29;20055;-49
2022/06/26 08:56:41;;;;;;;3.47;2.25;;;26.60;51.20;;;;;;4925053;29;20572;-49
2022/06/26 08:59:11;;;;;;;4.15;2.70;;;26.60;51.50;;;;;;4924840;29;20638;-50
2022/06/26 09:01:38;;;;;;;2.78;1.95;;;26.50;51.60;;;;;;4924930;29;20042;-50
2022/06/26 09:04:05;;;;;;;4.18;2.20;;;26.50;52.00;;;;;;4924991;29;20047;-47
2022/06/26 09:06:33;;;;;;;4.03;2.22;;;26.50;52.50;;;;;;4925867;29;20028;-49
2022/06/26 09:08:59;;;;;;;3.22;2.00;;;26.50;53.40;;;;;;4925916;29;20059;-48
2022/06/26 09:11:24;;;;;;;3.53;2.10;;;26.50;53.50;;;;;;4925882;29;20139;-48
2022/06/26 09:13:53;;;;;;;3.45;2.25;;;26.50;53.30;;;;;;4925279;29;20038;-47
2022/06/26 09:16:30;;;;;;;3.40;2.22;;;26.40;53.50;;;;;;4926196;29;20119;-48
2022/06/26 09:19:26;;;;;;;2.83;1.95;;;26.50;53.60;;;;;;4925462;29;20496;-49
2022/06/26 09:22:03;;;;;;;2.90;2.00;;;26.40;54.50;;;;;;4924237;29;20039;-49
2022/06/26 09:24:29;;;;;;;3.15;2.13;;;26.50;54.10;;;;;;4925299;29;20028;-48
2022/06/26 09:27:04;;;;;;;2.60;1.80;;;26.40;53.50;;;;;;4925446;29;20030;-48
2022/06/26 09:29:30;;;;;;;4.47;2.30;;;26.40;52.80;;;;;;4916552;29;21062;-48
2022/06/26 09:31:55;;;;;;;2.60;1.80;;;26.40;52.70;;;;;;4926853;29;20035;-47
2022/06/26 09:34:24;;;;;;;3.10;2.10;;;26.40;53.30;;;;;;4925264;29;20031;-47
2022/06/26 09:37:01;;;;;;;3.20;1.73;;;26.40;53.90;;;;;;4925286;29;20031;-48
2022/06/26 09:39:29;;;;;;;3.15;2.35;;;26.40;53.50;;;;;;4926119;29;20090;-49
2022/06/26 09:41:54;;;;;;;5.13;3.00;;;26.40;53.30;;;;;;4924876;29;20047;-50
2022/06/26 09:44:22;;;;;;;3.45;2.45;;;26.30;53.40;;;;;;4914237;29;20051;-49
2022/06/26 09:46:48;;;;;;;2.83;2.08;;;26.30;53.00;;;;;;4928217;29;20051;-50
2022/06/26 09:49:16;;;;;;;4.60;2.38;;;26.30;54.10;;;;;;4928761;29;20048;-49
2022/06/26 09:51:43;;;;;;;3.47;2.10;;;26.30;55.10;;;;;;4929222;29;20114;-49
2022/06/26 09:54:09;;;;;;;4.65;2.60;;;26.30;55.30;;;;;;4928627;29;20305;-49
2022/06/26 09:56:35;;;;;;;3.90;2.50;;;26.30;54.20;;;;;;4927585;29;20050;-49
2022/06/26 09:59:01;;;;;;;3.45;2.15;;;26.30;53.60;;;;;;4924082;29;20032;-48
2022/06/26 10:07:01;;;;;;;3.10;2.05;;;26.30;53.20;;;;;;4918157;29;20396;-52
2022/06/26 10:09:28;;;;;;;3.28;2.05;;;26.30;53.30;;;;;;4915594;29;20032;-50
2022/06/26 10:11:56;;;;;;;2.70;1.80;;;26.30;53.60;;;;;;4908618;29;20662;-50
2022/06/26 10:14:36;;;;;;;2.60;1.80;;;26.40;52.50;;;;;;4908569;29;20116;-50
2022/06/26 10:17:11;;;;;;;3.08;2.00;;;26.40;53.60;;;;;;4909063;29;20111;-49
2022/06/26 10:19:50;;;;;;;4.07;2.20;;;26.40;54.10;;;;;;4908897;29;20493;-50
2022/06/26 10:22:16;;;;;;;2.55;1.73;;;26.40;52.90;;;;;;4910581;29;20468;-51
2022/06/26 10:24:56;;;;;;;2.42;1.75;;;26.40;53.10;;;;;;4927664;29;20072;-50
2022/06/26 10:27:33;;;;;;;2.88;1.77;;;26.40;53.60;;;;;;4927638;29;20114;-50
2022/06/26 10:30:16;;;;;;;3.45;2.35;;;26.40;54.00;;;;;;4927608;29;20066;-49
2022/06/26 10:32:45;;;;;;;3.70;2.25;;;26.40;52.90;;;;;;4926727;29;20276;-51
2022/06/26 10:35:13;;;;;;;4.00;2.10;;;26.40;52.00;;;;;;4925067;29;20026;-50
2022/06/26 10:37:49;;;;;;;3.13;2.45;;;26.40;53.00;;;;;;4927586;29;20031;-50
2022/06/26 10:43:10;;;;;;;3.28;2.15;;;26.50;52.00;;;;;;4927149;29;20148;-50
2022/06/26 10:45:37;;;;;;;2.95;1.92;;;26.50;52.20;;;;;;4923088;29;20519;-51
2022/06/26 10:48:20;;;;;;;3.15;2.03;;;26.40;53.50;;;;;;4924796;29;20056;-51
2022/06/26 10:51:01;;;;;;;3.58;2.38;;;26.50;53.20;;;;;;4925226;29;20032;-50
2022/06/26 10:53:39;;;;;;;3.40;1.75;;;26.50;53.30;;;;;;4927320;29;20127;-50
2022/06/26 10:56:07;;;;;;;3.03;2.20;;;26.50;54.10;;;;;;4926394;29;20060;-50
2022/06/26 10:58:38;;;;;;;3.60;2.30;;;26.50;54.70;;;;;;4927433;29;20034;-51
2022/06/26 11:01:06;;;;;;;3.00;2.33;;;26.60;55.90;;;;;;4917700;29;20059;-50
2022/06/26 11:03:33;;;;;;;3.22;2.20;;;26.60;54.60;;;;;;4917726;29;20068;-49
2022/06/26 11:06:03;;;;;;;2.75;1.83;;;26.60;54.70;;;;;;4926923;29;20028;-50
2022/06/26 11:08:53;;;;;;;4.28;2.30;;;26.70;54.50;;;;;;4927427;29;20475;-49
2022/06/26 11:11:32;;;;;;;3.20;2.33;;;26.70;54.40;;;;;;4927818;29;20194;-48
2022/06/26 11:14:01;;;;;;;3.28;1.95;;;26.70;55.20;;;;;;4927962;29;20032;-48
2022/06/26 11:16:41;;;;;;;4.45;2.40;;;26.80;53.20;;;;;;4927026;29;20034;-50
2022/06/26 11:19:29;;;;;;;3.30;2.15;;;26.70;54.20;;;;;;4927005;29;20047;-49
2022/06/26 11:22:06;;;;;;;3.28;2.10;;;26.80;54.80;;;;;;4910212;29;20099;-50
2022/06/26 11:24:33;;;;;;;4.00;2.03;;;26.80;54.60;;;;;;4927145;29;20024;-50
2022/06/26 11:26:59;;;;;;;3.80;2.67;;;26.90;54.50;;;;;;4926780;29;20034;-50
2022/06/26 11:29:25;;;;;;;3.10;2.40;;;26.90;54.40;;;;;;4927023;29;20028;-48
2022/06/26 11:31:51;;;;;;;4.35;1.90;;;26.90;53.90;;;;;;4927239;29;20233;-49
2022/06/26 11:34:18;;;;;;;2.97;2.08;;;26.90;52.50;;;;;;4927364;29;20106;-50
2022/06/26 11:36:55;;;;;;;3.85;2.45;;;26.90;52.30;;;;;;4925655;29;20028;-49
2022/06/26 11:39:23;;;;;;;3.85;2.47;;;27.00;52.80;;;;;;4927152;29;20035;-48
2022/06/26 11:41:48;;;;;;;2.90;2.00;;;27.00;53.90;;;;;;4927135;29;20031;-49
2022/06/26 11:44:14;;;;;;;4.05;2.70;;;27.10;53.80;;;;;;4927350;29;20043;-48
2022/06/26 11:46:40;;;;;;;4.05;2.75;;;27.10;52.80;;;;;;4927055;29;20099;-48
2022/06/26 11:49:10;;;;;;;3.55;2.40;;;27.10;53.30;;;;;;4926509;29;20579;-49
2022/06/26 11:51:37;;;;;;;5.75;2.90;;;27.20;51.40;;;;;;4926645;29;20023;-50
2022/06/26 11:54:03;;;;;;;3.67;2.80;;;27.20;50.30;;;;;;4927044;29;20038;-48
2022/06/26 11:56:30;;;;;;;3.47;2.40;;;27.20;51.60;;;;;;4927196;29;20078;-47
2022/06/26 11:58:58;;;;;;;4.03;2.22;;;27.20;51.30;;;;;;4927299;29;20024;-48
2022/06/26 12:01:37;;;;;;;3.22;2.15;;;27.30;52.40;;;;;;4924517;29;20039;-47
2022/06/26 12:04:04;;;;;;;2.75;1.80;;;27.30;49.50;;;;;;4922106;29;20500;-48
2022/06/26 12:06:32;;;;;;;2.47;1.70;;;27.30;50.70;;;;;;4919541;29;20484;-49
2022/06/26 12:08:59;;;;;;;2.97;1.90;;;27.40;51.20;;;;;;4919127;29;20071;-49
2022/06/26 12:11:26;;;;;;;3.00;1.83;;;27.40;52.00;;;;;;4920170;29;20031;-49
2022/06/26 12:13:52;;;;;;;3.15;1.83;;;27.40;51.20;;;;;;4912683;29;20139;-50
2022/06/26 12:16:18;;;;;;;3.78;1.70;;;27.50;52.00;;;;;;4909644;29;20372;-50
2022/06/26 12:18:44;;;;;;;2.85;1.80;;;27.50;51.50;;;;;;4921506;29;20038;-50
2022/06/26 12:21:18;;;;;;;3.35;1.95;;;27.60;48.50;;;;;;4925881;29;20516;-50
2022/06/26 12:23:46;;;;;;;2.85;1.73;;;27.60;49.70;;;;;;4925142;29;20062;-50
2022/06/26 12:26:16;;;;;;;3.00;1.92;;;27.60;49.50;;;;;;4924427;29;20059;-50
2022/06/26 12:28:44;;;;;;;2.60;1.70;;;27.60;48.60;;;;;;4926434;29;20483;-50
2022/06/26 12:31:10;;;;;;;2.58;1.67;;;27.60;48.60;;;;;;4926326;29;20038;-51
2022/06/26 12:33:36;;;;;;;3.20;1.75;;;27.70;50.60;;;;;;4925288;29;20046;-51
2022/06/26 12:36:02;;;;;;;3.65;1.90;;;27.70;50.40;;;;;;4925601;29;20501;-50
2022/06/26 12:38:28;;;;;;;2.90;1.75;;;27.70;50.60;;;;;;4926702;29;20546;-51
2022/06/26 12:40:54;;;;;;;2.33;1.50;;;27.70;48.60;;;;;;4944885;29;20103;-50
2022/06/26 12:43:21;;;;;;;2.22;1.30;;;27.80;49.40;;;;;;4937879;28;20046;-49
2022/06/26 12:45:47;;;;;;;2.55;1.80;;;27.80;50.90;;;;;;4925819;29;20040;-51
2022/06/26 12:48:12;;;;;;;2.30;1.55;;;27.80;49.90;;;;;;4924357;29;20043;-50
2022/06/26 12:50:39;;;;;;;2.67;1.67;;;27.80;48.40;;;;;;4926286;29;20036;-50
2022/06/26 12:53:04;;;;;;;3.17;1.60;;;27.90;48.80;;;;;;4925692;29;20050;-48
2022/06/26 12:55:30;;;;;;;2.75;1.67;;;27.90;50.80;;;;;;4926073;29;20032;-49
2022/06/26 12:57:56;;;;;;;3.10;2.03;;;27.90;49.80;;;;;;4924349;29;20392;-48
2022/06/26 13:00:21;;;;;;;2.80;1.80;;;27.90;49.60;;;;;;4926036;29;20501;-48
2022/06/26 13:02:47;;;;;;;2.50;1.70;;;27.90;50.20;;;;;;4925656;29;20028;-50